DAL1229 KATL-KFLL
Flight info
| Callsign | DAL1229 |
|---|---|
| Flight time | 1h 23m |
| Altitude | 35000 |
| Route | SMLTZ3 WALET ZPLEN TEEKY4 |
| Aircraft | A21N/M-SADE2E3GHIJ4J7M3P2RWXYZ/LB1D1 |
Departure
| Time | 2026-05-04 07:22 |
|---|---|
| Airport | Hartsfield Jackson Atlanta International Airport (KATL) |
Arrival
| Time | 2026-05-04 08:46 |
|---|---|
| Airport | Fort Lauderdale Hollywood International Airport (KFLL) |
| Time | Latitude | Longitude | Altitude | Speed | Heading |
|---|---|---|---|---|---|
| 2026-05-04 07:06 | 33.63845 | -84.43970 | 1041 ft | 0 kts | 91° |
| 2026-05-04 07:12 | 33.63845 | -84.43977 | 1041 ft | 3 kts | 91° |
| 2026-05-04 07:12 | 33.63845 | -84.44001 | 1041 ft | 3 kts | 92° |
| 2026-05-04 07:12 | 33.63848 | -84.44024 | 1041 ft | 3 kts | 112° |
| 2026-05-04 07:12 | 33.63858 | -84.44043 | 1041 ft | 3 kts | 143° |
| 2026-05-04 07:13 | 33.63874 | -84.44051 | 1041 ft | 3 kts | 178° |
| 2026-05-04 07:13 | 33.63877 | -84.44051 | 1041 ft | 0 kts | 180° |
| 2026-05-04 07:15 | 33.63873 | -84.44051 | 1041 ft | 2 kts | 180° |
| 2026-05-04 07:15 | 33.63839 | -84.44052 | 1041 ft | 7 kts | 180° |
| 2026-05-04 07:15 | 33.63783 | -84.44052 | 1041 ft | 9 kts | 180° |
| 2026-05-04 07:15 | 33.63714 | -84.44053 | 1041 ft | 11 kts | 180° |
| 2026-05-04 07:16 | 33.63666 | -84.43984 | 1041 ft | 13 kts | 96° |
| 2026-05-04 07:16 | 33.63663 | -84.43870 | 1041 ft | 15 kts | 91° |
| 2026-05-04 07:16 | 33.63661 | -84.43742 | 1041 ft | 16 kts | 90° |
| 2026-05-04 07:16 | 33.63663 | -84.43602 | 1041 ft | 18 kts | 89° |
| 2026-05-04 07:17 | 33.63665 | -84.43450 | 1040 ft | 19 kts | 89° |
| 2026-05-04 07:17 | 33.63665 | -84.43287 | 1040 ft | 20 kts | 90° |
| 2026-05-04 07:17 | 33.63665 | -84.43114 | 1041 ft | 21 kts | 90° |
| 2026-05-04 07:17 | 33.63665 | -84.42931 | 1040 ft | 23 kts | 90° |
| 2026-05-04 07:18 | 33.63663 | -84.42737 | 1041 ft | 24 kts | 94° |
| 2026-05-04 07:18 | 33.63654 | -84.42533 | 1041 ft | 25 kts | 90° |
| 2026-05-04 07:18 | 33.63655 | -84.42322 | 1041 ft | 22 kts | 90° |
| 2026-05-04 07:18 | 33.63644 | -84.42175 | 1041 ft | 15 kts | 110° |
| 2026-05-04 07:19 | 33.63589 | -84.42057 | 1041 ft | 17 kts | 104° |
| 2026-05-04 07:19 | 33.63583 | -84.41911 | 1041 ft | 18 kts | 91° |
| 2026-05-04 07:19 | 33.63580 | -84.41754 | 1040 ft | 19 kts | 91° |
| 2026-05-04 07:19 | 33.63584 | -84.41587 | 1040 ft | 21 kts | 88° |
| 2026-05-04 07:20 | 33.63582 | -84.41409 | 1040 ft | 22 kts | 91° |
| 2026-05-04 07:20 | 33.63581 | -84.41222 | 1040 ft | 21 kts | 88° |
| 2026-05-04 07:20 | 33.63583 | -84.41071 | 1041 ft | 19 kts | 90° |
| 2026-05-04 07:20 | 33.63583 | -84.40959 | 1041 ft | 12 kts | 90° |
| 2026-05-04 07:22 | 33.63471 | -84.44012 | 1272 ft | 171 kts | 270° |
| 2026-05-04 07:22 | 33.63460 | -84.45386 | 2060 ft | 165 kts | 268° |
| 2026-05-04 07:23 | 33.63428 | -84.46787 | 2607 ft | 171 kts | 269° |
| 2026-05-04 07:23 | 33.63420 | -84.48279 | 2998 ft | 188 kts | 269° |
| 2026-05-04 07:23 | 33.63418 | -84.49955 | 3249 ft | 214 kts | 270° |
| 2026-05-04 07:23 | 33.63420 | -84.51850 | 3635 ft | 239 kts | 270° |
| 2026-05-04 07:24 | 33.63423 | -84.53914 | 4235 ft | 254 kts | 270° |
| 2026-05-04 07:24 | 33.63429 | -84.56056 | 5063 ft | 259 kts | 270° |
| 2026-05-04 07:24 | 33.63436 | -84.58244 | 5897 ft | 264 kts | 270° |
| 2026-05-04 07:24 | 33.63438 | -84.60471 | 6718 ft | 269 kts | 271° |
| 2026-05-04 07:25 | 33.63426 | -84.62724 | 7478 ft | 274 kts | 269° |
| 2026-05-04 07:26 | 33.52042 | -84.68816 | 12523 ft | 311 kts | 169° |
| 2026-05-04 07:27 | 33.49904 | -84.68360 | 13257 ft | 314 kts | 170° |
| 2026-05-04 07:27 | 33.47738 | -84.67922 | 13966 ft | 318 kts | 171° |
| 2026-05-04 07:27 | 33.45539 | -84.67495 | 14601 ft | 321 kts | 172° |
| 2026-05-04 07:27 | 33.43336 | -84.67034 | 15233 ft | 324 kts | 167° |
| 2026-05-04 07:28 | 33.41255 | -84.65962 | 15790 ft | 331 kts | 145° |
| 2026-05-04 07:28 | 33.40042 | -84.64758 | 16032 ft | 341 kts | 136° |
| 2026-05-04 07:28 | 33.38355 | -84.62725 | 16315 ft | 356 kts | 134° |
| 2026-05-04 07:28 | 33.36571 | -84.60516 | 16574 ft | 373 kts | 134° |
| 2026-05-04 07:29 | 33.34736 | -84.58286 | 16816 ft | 389 kts | 135° |
| 2026-05-04 07:29 | 33.32787 | -84.55957 | 17052 ft | 404 kts | 135° |
| 2026-05-04 07:29 | 33.30756 | -84.53554 | 17399 ft | 415 kts | 136° |
| 2026-05-04 07:29 | 33.28692 | -84.51118 | 17952 ft | 420 kts | 136° |
| 2026-05-04 07:30 | 33.26599 | -84.48650 | 18523 ft | 424 kts | 136° |
| 2026-05-04 07:30 | 33.24496 | -84.46170 | 19028 ft | 428 kts | 136° |
| 2026-05-04 07:30 | 33.22367 | -84.43661 | 19539 ft | 431 kts | 136° |
| 2026-05-04 07:30 | 33.20223 | -84.41139 | 20045 ft | 435 kts | 136° |
| 2026-05-04 07:31 | 33.18051 | -84.38591 | 20535 ft | 439 kts | 136° |
| 2026-05-04 07:31 | 33.15864 | -84.36025 | 21012 ft | 443 kts | 137° |
| 2026-05-04 07:33 | 32.99822 | -84.17779 | 24094 ft | 466 kts | 149° |
| 2026-05-04 07:33 | 32.96945 | -84.16016 | 24454 ft | 464 kts | 161° |
| 2026-05-04 07:33 | 32.93907 | -84.14730 | 24816 ft | 466 kts | 165° |
| 2026-05-04 07:33 | 32.90818 | -84.13500 | 25183 ft | 469 kts | 165° |
| 2026-05-04 07:34 | 32.87718 | -84.12258 | 25538 ft | 472 kts | 165° |
| 2026-05-04 07:34 | 32.84597 | -84.10991 | 25903 ft | 475 kts | 164° |
| 2026-05-04 07:34 | 32.81465 | -84.09708 | 26242 ft | 478 kts | 164° |
| 2026-05-04 07:34 | 32.78313 | -84.08411 | 26584 ft | 481 kts | 164° |
| 2026-05-04 07:35 | 32.75145 | -84.07108 | 26933 ft | 484 kts | 164° |
| 2026-05-04 07:35 | 32.71944 | -84.05795 | 27273 ft | 487 kts | 164° |
| 2026-05-04 07:35 | 32.68733 | -84.04476 | 27600 ft | 490 kts | 164° |
| 2026-05-04 07:35 | 32.65503 | -84.03152 | 27907 ft | 493 kts | 164° |
| 2026-05-04 07:36 | 32.62247 | -84.01820 | 28267 ft | 494 kts | 164° |
| 2026-05-04 07:36 | 32.58998 | -84.00491 | 28686 ft | 495 kts | 164° |
| 2026-05-04 07:38 | 32.36263 | -83.91239 | 31187 ft | 493 kts | 166° |
| 2026-05-04 07:38 | 32.32992 | -83.90050 | 31473 ft | 493 kts | 167° |
| 2026-05-04 07:38 | 32.29711 | -83.88870 | 31784 ft | 492 kts | 167° |
| 2026-05-04 07:38 | 32.26433 | -83.87694 | 32076 ft | 492 kts | 167° |
| 2026-05-04 07:39 | 32.23163 | -83.86522 | 32369 ft | 491 kts | 167° |
| 2026-05-04 07:39 | 32.19896 | -83.85353 | 32634 ft | 491 kts | 167° |
| 2026-05-04 07:39 | 32.16636 | -83.84185 | 32907 ft | 490 kts | 167° |
| 2026-05-04 07:39 | 32.13368 | -83.83018 | 33184 ft | 490 kts | 167° |
| 2026-05-04 07:40 | 32.10105 | -83.81853 | 33439 ft | 490 kts | 167° |
| 2026-05-04 07:40 | 32.06842 | -83.80687 | 33691 ft | 490 kts | 167° |
| 2026-05-04 07:40 | 32.03583 | -83.79523 | 33921 ft | 489 kts | 167° |
| 2026-05-04 07:40 | 32.00328 | -83.78361 | 34178 ft | 489 kts | 167° |
| 2026-05-04 07:41 | 31.97073 | -83.77201 | 34375 ft | 488 kts | 167° |
| 2026-05-04 07:41 | 31.93828 | -83.76045 | 34576 ft | 487 kts | 167° |
| 2026-05-04 07:41 | 31.90577 | -83.74889 | 34790 ft | 487 kts | 167° |
| 2026-05-04 07:41 | 31.87342 | -83.73739 | 34984 ft | 486 kts | 168° |
| 2026-05-04 07:42 | 31.84103 | -83.72589 | 35160 ft | 486 kts | 168° |
| 2026-05-04 07:42 | 31.80869 | -83.71441 | 35208 ft | 486 kts | 168° |
| 2026-05-04 07:42 | 31.74441 | -83.69159 | 35171 ft | 485 kts | 168° |
| 2026-05-04 07:43 | 31.67984 | -83.66836 | 35166 ft | 486 kts | 167° |
| 2026-05-04 07:43 | 31.61557 | -83.64372 | 35160 ft | 486 kts | 166° |
| 2026-05-04 07:44 | 31.55133 | -83.61903 | 35166 ft | 486 kts | 167° |
| 2026-05-04 07:44 | 31.48701 | -83.59438 | 35158 ft | 486 kts | 167° |
| 2026-05-04 07:45 | 31.42281 | -83.56982 | 35174 ft | 486 kts | 167° |
| 2026-05-04 07:45 | 31.35854 | -83.54527 | 35173 ft | 486 kts | 167° |
| 2026-05-04 07:46 | 31.29423 | -83.52073 | 35167 ft | 486 kts | 167° |
| 2026-05-04 07:46 | 31.22994 | -83.49624 | 35165 ft | 486 kts | 167° |
| 2026-05-04 07:47 | 31.16565 | -83.47179 | 35155 ft | 486 kts | 167° |
| 2026-05-04 07:49 | 30.90887 | -83.37443 | 35157 ft | 486 kts | 168° |
| 2026-05-04 07:49 | 30.84461 | -83.35015 | 35157 ft | 485 kts | 168° |
| 2026-05-04 07:50 | 30.78048 | -83.32598 | 35158 ft | 485 kts | 168° |
| 2026-05-04 07:50 | 30.71634 | -83.30159 | 35157 ft | 486 kts | 166° |
| 2026-05-04 07:51 | 30.65401 | -83.26946 | 35163 ft | 491 kts | 160° |
| 2026-05-04 07:51 | 30.59215 | -83.23590 | 35164 ft | 491 kts | 161° |
| 2026-05-04 07:52 | 30.53017 | -83.20251 | 35166 ft | 491 kts | 161° |
| 2026-05-04 07:52 | 30.46859 | -83.16947 | 35170 ft | 491 kts | 161° |
| 2026-05-04 07:54 | 30.22079 | -83.03685 | 35170 ft | 490 kts | 161° |
| 2026-05-04 07:55 | 30.15885 | -83.00379 | 35165 ft | 490 kts | 161° |
| 2026-05-04 07:55 | 30.09694 | -82.97085 | 35167 ft | 490 kts | 162° |
| 2026-05-04 07:56 | 30.03501 | -82.93791 | 35163 ft | 490 kts | 162° |
| 2026-05-04 07:56 | 29.97315 | -82.90503 | 35164 ft | 490 kts | 162° |
| 2026-05-04 07:57 | 29.91132 | -82.87224 | 35159 ft | 489 kts | 162° |
| 2026-05-04 07:57 | 29.84939 | -82.83944 | 35153 ft | 489 kts | 162° |
| 2026-05-04 07:58 | 29.78788 | -82.80689 | 35150 ft | 490 kts | 162° |
| 2026-05-04 07:58 | 29.72595 | -82.77416 | 35150 ft | 489 kts | 162° |
| 2026-05-04 07:59 | 29.66410 | -82.74152 | 35156 ft | 489 kts | 162° |
| 2026-05-04 07:59 | 29.60221 | -82.70893 | 35146 ft | 489 kts | 163° |
| 2026-05-04 08:00 | 29.54038 | -82.67641 | 35149 ft | 489 kts | 163° |
| 2026-05-04 08:02 | 29.29270 | -82.54656 | 35129 ft | 489 kts | 164° |
| 2026-05-04 08:02 | 29.26116 | -82.53312 | 35123 ft | 478 kts | 174° |
| 2026-05-04 08:02 | 29.22973 | -82.52694 | 35124 ft | 463 kts | 186° |
| 2026-05-04 08:03 | 29.16534 | -82.52668 | 35138 ft | 456 kts | 191° |
| 2026-05-04 08:03 | 29.10191 | -82.52730 | 35121 ft | 456 kts | 190° |
| 2026-05-04 08:04 | 29.03875 | -82.52732 | 35116 ft | 456 kts | 190° |
| 2026-05-04 08:04 | 28.97527 | -82.52727 | 35116 ft | 456 kts | 190° |
| 2026-05-04 08:05 | 28.91183 | -82.52725 | 35112 ft | 456 kts | 190° |
| 2026-05-04 08:05 | 28.84833 | -82.52724 | 35121 ft | 456 kts | 190° |
| 2026-05-04 08:06 | 28.78486 | -82.52720 | 35118 ft | 456 kts | 190° |
| 2026-05-04 08:06 | 28.72139 | -82.52715 | 35119 ft | 456 kts | 190° |
| 2026-05-04 08:08 | 28.46800 | -82.52703 | 35105 ft | 455 kts | 191° |
| 2026-05-04 08:11 | 28.18367 | -82.52691 | 35089 ft | 454 kts | 191° |
| 2026-05-04 08:11 | 28.08891 | -82.52688 | 35085 ft | 454 kts | 191° |
| 2026-05-04 08:12 | 28.02575 | -82.52684 | 35083 ft | 455 kts | 191° |
| 2026-05-04 08:12 | 27.99383 | -82.52399 | 35075 ft | 470 kts | 181° |
| 2026-05-04 08:12 | 27.96175 | -82.51461 | 35090 ft | 481 kts | 173° |
| 2026-05-04 08:13 | 27.89781 | -82.49109 | 35072 ft | 482 kts | 173° |
| 2026-05-04 08:13 | 27.83406 | -82.46808 | 35067 ft | 481 kts | 173° |
| 2026-05-04 08:14 | 27.77026 | -82.44546 | 35067 ft | 480 kts | 173° |
| 2026-05-04 08:16 | 27.51562 | -82.35563 | 35064 ft | 479 kts | 173° |
| 2026-05-04 08:16 | 27.45204 | -82.33316 | 35061 ft | 478 kts | 173° |
| 2026-05-04 08:17 | 27.38855 | -82.31052 | 35061 ft | 481 kts | 171° |
| 2026-05-04 08:17 | 27.38150 | -82.30756 | 35057 ft | 484 kts | 168° |
| 2026-05-04 08:20 | 27.34026 | -82.28413 | 35067 ft | 495 kts | 160° |
| 2026-05-04 08:20 | 27.28038 | -82.24552 | 35056 ft | 495 kts | 160° |
| 2026-05-04 08:21 | 27.23069 | -82.21373 | 35046 ft | 494 kts | 160° |
| 2026-05-04 08:21 | 27.17083 | -82.17581 | 35049 ft | 493 kts | 160° |
| 2026-05-04 08:22 | 27.11121 | -82.13807 | 35061 ft | 491 kts | 160° |
| 2026-05-04 08:24 | 26.90936 | -81.98361 | 29538 ft | 523 kts | 139° |
| 2026-05-04 08:24 | 26.88480 | -81.95363 | 28888 ft | 522 kts | 139° |
| 2026-05-04 08:24 | 26.86018 | -81.92394 | 28286 ft | 518 kts | 139° |
| 2026-05-04 08:24 | 26.83560 | -81.89465 | 27700 ft | 512 kts | 140° |
| 2026-05-04 08:25 | 26.81130 | -81.86596 | 27128 ft | 506 kts | 140° |
| 2026-05-04 08:25 | 26.78718 | -81.83753 | 26589 ft | 500 kts | 140° |
| 2026-05-04 08:25 | 26.76345 | -81.80954 | 26057 ft | 492 kts | 140° |
| 2026-05-04 08:25 | 26.74006 | -81.78224 | 25710 ft | 479 kts | 140° |
| 2026-05-04 08:26 | 26.71725 | -81.75572 | 25365 ft | 468 kts | 140° |
| 2026-05-04 08:27 | 26.57282 | -81.56925 | 21402 ft | 439 kts | 132° |
| 2026-05-04 08:28 | 26.55461 | -81.54208 | 20822 ft | 435 kts | 133° |
| 2026-05-04 08:28 | 26.53660 | -81.51529 | 20293 ft | 430 kts | 133° |
| 2026-05-04 08:28 | 26.51871 | -81.48871 | 19788 ft | 425 kts | 133° |
| 2026-05-04 08:28 | 26.50100 | -81.46249 | 19265 ft | 421 kts | 133° |
| 2026-05-04 08:29 | 26.48349 | -81.43652 | 18737 ft | 417 kts | 133° |
| 2026-05-04 08:29 | 26.46620 | -81.41090 | 18267 ft | 412 kts | 133° |
| 2026-05-04 08:29 | 26.44900 | -81.38542 | 17677 ft | 408 kts | 133° |
| 2026-05-04 08:31 | 26.32878 | -81.21938 | 14456 ft | 382 kts | 135° |
| 2026-05-04 08:33 | 26.21156 | -81.06433 | 11740 ft | 355 kts | 134° |
| 2026-05-04 08:33 | 26.19587 | -81.04366 | 11526 ft | 343 kts | 134° |
| 2026-05-04 08:35 | 26.13161 | -80.88896 | 8936 ft | 315 kts | 100° |
| 2026-05-04 08:35 | 26.12783 | -80.86504 | 8516 ft | 313 kts | 100° |
| 2026-05-04 08:35 | 26.12396 | -80.84128 | 8114 ft | 310 kts | 100° |
| 2026-05-04 08:35 | 26.12010 | -80.81780 | 7722 ft | 307 kts | 101° |
| 2026-05-04 08:37 | 26.10046 | -80.68063 | 6068 ft | 295 kts | 98° |
| 2026-05-04 08:37 | 26.09735 | -80.65814 | 5881 ft | 293 kts | 98° |
| 2026-05-04 08:37 | 26.09425 | -80.63577 | 5678 ft | 291 kts | 99° |
| 2026-05-04 08:38 | 26.09116 | -80.61361 | 5299 ft | 289 kts | 99° |
| 2026-05-04 08:38 | 26.08812 | -80.59161 | 5054 ft | 287 kts | 98° |
| 2026-05-04 08:38 | 26.08506 | -80.56962 | 5006 ft | 287 kts | 99° |
| 2026-05-04 08:40 | 26.07835 | -80.43985 | 4372 ft | 245 kts | 90° |
| 2026-05-04 08:40 | 26.07846 | -80.42127 | 4165 ft | 237 kts | 89° |
| 2026-05-04 08:40 | 26.07833 | -80.40297 | 3964 ft | 236 kts | 90° |
| 2026-05-04 08:41 | 26.07823 | -80.38484 | 3729 ft | 233 kts | 90° |
| 2026-05-04 08:41 | 26.07813 | -80.36710 | 3471 ft | 231 kts | 90° |
| 2026-05-04 08:41 | 26.07802 | -80.34909 | 3180 ft | 229 kts | 90° |
| 2026-05-04 08:41 | 26.07792 | -80.33156 | 2883 ft | 224 kts | 90° |
| 2026-05-04 08:42 | 26.07783 | -80.31451 | 2629 ft | 217 kts | 90° |
| 2026-05-04 08:42 | 26.07773 | -80.29801 | 2379 ft | 210 kts | 90° |
| 2026-05-04 08:42 | 26.07764 | -80.28190 | 2094 ft | 206 kts | 90° |
| 2026-05-04 08:42 | 26.07756 | -80.26639 | 1821 ft | 200 kts | 90° |
| 2026-05-04 08:43 | 26.07747 | -80.25115 | 1570 ft | 193 kts | 90° |
| 2026-05-04 08:43 | 26.07739 | -80.23640 | 1307 ft | 188 kts | 89° |
| 2026-05-04 08:43 | 26.07731 | -80.22231 | 1028 ft | 173 kts | 89° |
| 2026-05-04 08:43 | 26.07724 | -80.21008 | 798 ft | 147 kts | 89° |
| 2026-05-04 08:44 | 26.07718 | -80.19882 | 621 ft | 145 kts | 89° |
| 2026-05-04 08:44 | 26.07712 | -80.18773 | 435 ft | 142 kts | 89° |
| 2026-05-04 08:46 | 26.07567 | -80.14387 | 23 ft | 6 kts | 237° |
| 2026-05-04 08:46 | 26.07560 | -80.14437 | 22 ft | 8 kts | 273° |
| 2026-05-04 08:46 | 26.07547 | -80.14501 | 22 ft | 10 kts | 213° |
| 2026-05-04 08:46 | 26.07490 | -80.14469 | 23 ft | 12 kts | 104° |
| 2026-05-04 08:47 | 26.07490 | -80.14380 | 21 ft | 5 kts | 89° |
| 2026-05-04 08:47 | 26.07472 | -80.14340 | 21 ft | 7 kts | 167° |
| 2026-05-04 08:47 | 26.07432 | -80.14343 | 21 ft | 5 kts | 182° |
| 2026-05-04 08:47 | 26.07400 | -80.14344 | 21 ft | 3 kts | 180° |
| 2026-05-04 08:48 | 26.07389 | -80.14344 | 21 ft | 0 kts | 180° |